Time;durP1;ratioP1;P1;durP2;ratioP2;P2;SDS_P1;SDS_P2;PMS_P1;PMS_P2;Temp;Humidity;BMP_temperature;BMP_pressure;BME280_temperature;BME280_humidity;BME280_pressure;Samples;Min_cycle;Max_cycle;Signal;HPM_P1;HPM_P2
2022/12/10 09:44:45;;;;;;;32.47;14.00;;;;;;;-0.05;100.00;98071.69;5124729;27;20748;-77
2022/12/10 09:47:12;;;;;;;32.13;14.38;;;;;;;-0.03;100.00;98067.03;5094727;28;20055;-78
2022/12/10 09:49:55;;;;;;;32.38;15.63;;;;;;;0.04;100.00;98062.78;5099622;28;20076;-78
2022/12/10 09:52:25;;;;;;;31.85;15.77;;;;;;;0.34;100.00;98098.28;5095003;28;20054;-78
2022/12/10 09:54:55;;;;;;;29.40;13.77;;;;;;;0.23;100.00;98071.75;5106467;28;20062;-78
2022/12/10 09:57:26;;;;;;;30.45;15.20;;;;;;;0.31;100.00;98083.38;5105551;28;20048;-78
2022/12/10 09:59:55;;;;;;;30.15;14.48;;;;;;;0.37;100.00;98076.59;5101705;28;20044;-79
2022/12/10 10:02:25;;;;;;;30.55;14.45;;;;;;;0.59;100.00;98093.25;5091851;28;20047;-81
2022/12/10 10:04:55;;;;;;;29.48;14.35;;;;;;;0.40;100.00;98095.03;5102102;28;20047;-78
2022/12/10 10:07:42;;;;;;;30.42;13.50;;;;;;;0.47;100.00;98106.00;5108084;28;20402;-79
2022/12/10 10:10:20;;;;;;;30.80;13.55;;;;;;;0.31;100.00;98075.34;5103707;28;20044;-79
2022/12/10 10:12:47;;;;;;;28.70;15.30;;;;;;;0.33;100.00;98084.09;5095318;28;20045;-79
2022/12/10 10:15:22;;;;;;;30.00;15.25;;;;;;;0.45;100.00;98086.56;5092205;28;20117;-79
2022/12/10 10:17:53;;;;;;;27.20;14.70;;;;;;;0.53;100.00;98089.38;5087588;28;20499;-79
2022/12/10 10:20:20;;;;;;;28.73;13.15;;;;;;;0.57;100.00;98090.72;5106042;28;20129;-79
2022/12/10 10:22:47;;;;;;;26.38;13.60;;;;;;;0.65;100.00;98104.22;5097598;28;20047;-79
2022/12/10 10:25:15;;;;;;;23.75;12.77;;;;;;;0.63;100.00;98105.34;5106820;28;20133;-79
2022/12/10 10:27:42;;;;;;;23.95;12.70;;;;;;;0.70;100.00;98101.09;5100456;28;20054;-79
2022/12/10 10:30:18;;;;;;;28.08;13.60;;;;;;;0.56;100.00;98083.72;5100875;28;20044;-79
2022/12/10 10:32:49;;;;;;;26.33;13.25;;;;;;;0.50;100.00;98071.78;5094554;28;20484;-79
2022/12/10 10:35:23;;;;;;;27.58;13.90;;;;;;;0.52;100.00;98068.94;5101590;28;20040;-79
2022/12/10 10:37:50;;;;;;;27.05;12.80;;;;;;;0.53;100.00;98084.84;5097444;28;20502;-79
2022/12/10 10:40:24;;;;;;;31.23;13.32;;;;;;;0.57;100.00;98090.72;5097867;28;20133;-79
2022/12/10 10:42:55;;;;;;;30.77;14.00;;;;;;;0.48;100.00;98078.25;5098559;28;20062;-79
2022/12/10 10:45:39;;;;;;;27.67;10.52;;;;;;;0.45;100.00;98083.88;5101782;28;20501;-79
2022/12/10 10:48:10;;;;;;;26.25;11.65;;;;;;;0.50;100.00;98085.13;5099333;28;20171;-79
2022/12/10 10:50:40;;;;;;;25.95;12.80;;;;;;;0.59;100.00;98062.03;5103004;28;20113;-79
2022/12/10 10:53:23;;;;;;;18.48;10.02;;;;;;;0.60;100.00;98078.91;5100685;28;20044;-79
2022/12/10 10:55:50;;;;;;;24.40;12.82;;;;;;;0.58;100.00;98076.38;5085293;28;20123;-79
2022/12/10 10:58:19;;;;;;;22.35;11.40;;;;;;;0.50;100.00;98079.78;5082754;28;20134;-79
2022/12/10 11:00:56;;;;;;;22.67;12.23;;;;;;;0.47;100.00;98089.97;5089108;28;20055;-78
2022/12/10 11:03:23;;;;;;;24.65;10.88;;;;;;;0.30;100.00;98076.38;5084260;28;20044;-77
2022/12/10 11:05:50;;;;;;;25.15;11.02;;;;;;;0.25;100.00;98077.78;5086044;28;20052;-77
2022/12/10 11:08:18;;;;;;;24.70;12.10;;;;;;;0.29;100.00;98079.19;5084558;28;20078;-77
2022/12/10 11:10:49;;;;;;;22.70;11.25;;;;;;;0.32;100.00;98093.09;5087512;28;20047;-78
2022/12/10 11:13:25;;;;;;;15.65;8.00;;;;;;;0.47;100.00;98106.84;5079623;28;20049;-79
2022/12/10 11:15:59;;;;;;;20.45;10.48;;;;;;;0.70;100.00;98112.63;5076853;28;20103;-79
2022/12/10 11:18:31;;;;;;;23.52;11.73;;;;;;;0.84;100.00;98110.47;5072914;28;20052;-79
2022/12/10 11:21:01;;;;;;;22.05;11.73;;;;;;;0.85;100.00;98090.75;5084939;28;20051;-79
2022/12/10 11:23:28;;;;;;;;;;;;;;;0.94;100.00;98111.25;5077037;28;20135;-78
2022/12/10 11:26:08;;;;;;;29.80;12.68;;;;;;;0.84;100.00;98089.91;5087690;28;19973;-78
2022/12/10 11:28:49;;;;;;;35.30;15.30;;;;;;;0.96;100.00;98095.03;5084826;28;20490;-78
2022/12/10 11:31:38;;;;;;;34.17;15.35;;;;;;;1.05;100.00;98123.56;5087842;28;20415;-78
2022/12/10 11:34:15;;;;;;;17.42;8.82;;;;;;;0.99;100.00;98097.41;5085295;28;20048;-78
2022/12/10 11:36:51;;;;;;;63.83;32.53;;;;;;;1.02;100.00;98110.50;5075318;28;20073;-77
2022/12/10 11:39:44;;;;;;;31.00;16.13;;;;;;;1.09;100.00;98098.19;5086289;28;20130;-77
2022/12/10 11:42:20;;;;;;;32.17;16.20;;;;;;;1.26;100.00;98119.78;5067979;28;20093;-77
2022/12/10 11:44:53;;;;;;;27.08;12.13;;;;;;;1.02;100.00;98086.41;5088359;28;20040;-77
2022/12/10 11:47:35;;;;;;;34.63;18.65;;;;;;;1.13;100.00;98122.81;5088130;28;20042;-78
2022/12/10 11:50:15;;;;;;;35.63;16.13;;;;;;;1.17;100.00;98111.66;5085734;28;20056;-78
2022/12/10 11:52:51;;;;;;;;;;;;;;;1.43;100.00;98116.31;5086848;28;20072;-78
2022/12/10 11:55:27;;;;;;;29.50;14.30;;;;;;;1.27;100.00;98113.47;5080857;28;19950;-78
2022/12/10 11:58:10;;;;;;;47.47;20.73;;;;;;;1.54;100.00;98134.81;5091523;28;20050;-79
2022/12/10 12:00:47;;;;;;;79.97;32.80;;;;;;;1.21;100.00;98094.31;5083774;28;20059;-79
2022/12/10 12:03:35;;;;;;;28.05;14.63;;;;;;;1.22;100.00;98090.66;5079533;28;20048;-79
2022/12/10 12:06:25;;;;;;;31.75;15.07;;;;;;;1.31;100.00;98112.13;5084915;28;20396;-78
2022/12/10 12:08:59;;;;;;;23.50;13.18;;;;;;;1.24;100.00;98122.63;5087413;28;20044;-78
2022/12/10 12:11:36;;;;;;;28.80;15.05;;;;;;;1.31;100.00;98115.69;5087055;28;20074;-79
2022/12/10 12:14:08;;;;;;;21.70;11.40;;;;;;;1.39;100.00;98106.88;5078768;28;20048;-78
2022/12/10 12:16:41;;;;;;;24.70;12.68;;;;;;;1.48;100.00;98107.81;5084696;28;20514;-77
2022/12/10 12:19:14;;;;;;;28.67;15.00;;;;;;;1.49;100.00;98123.72;5085024;28;20048;-78
2022/12/10 12:21:43;;;;;;;21.02;11.65;;;;;;;1.37;100.00;98123.09;5083208;28;20598;-77
2022/12/10 12:24:16;;;;;;;22.75;12.05;;;;;;;1.47;100.00;98116.81;5076105;28;20036;-77
2022/12/10 12:26:47;;;;;;;23.05;11.20;;;;;;;1.30;100.00;98122.03;5088959;28;20046;-78
2022/12/10 12:29:19;;;;;;;20.73;12.27;;;;;;;1.16;100.00;98093.06;5087621;28;20159;-78
2022/12/10 12:31:50;;;;;;;22.23;11.50;;;;;;;1.40;100.00;98124.63;5084576;28;20044;-78
2022/12/10 12:34:22;;;;;;;30.70;15.70;;;;;;;1.38;100.00;98129.28;5080971;28;20042;-78
2022/12/10 12:36:49;;;;;;;23.55;12.27;;;;;;;1.27;100.00;98116.13;5074519;28;20068;-78
2022/12/10 12:39:25;;;;;;;25.17;11.00;;;;;;;1.34;100.00;98123.41;5089446;28;20048;-78
2022/12/10 12:42:02;;;;;;;18.25;11.18;;;;;;;1.21;100.00;98112.22;5086575;28;20570;-78
2022/12/10 12:44:34;;;;;;;23.77;15.15;;;;;;;1.24;100.00;98119.94;5086476;28;20044;-78
2022/12/10 12:47:23;;;;;;;21.23;9.90;;;;;;;1.30;99.16;98132.72;5077558;28;20040;-78
2022/12/10 12:49:52;;;;;;;23.30;11.32;;;;;;;1.37;100.00;98146.34;5086953;28;20506;-78
2022/12/10 12:52:32;;;;;;;18.17;10.18;;;;;;;1.38;96.78;98151.53;5088072;28;20058;-78
2022/12/10 12:55:02;;;;;;;23.67;10.23;;;;;;;1.32;95.29;98144.13;5081372;28;20045;-78
2022/12/10 12:57:37;;;;;;;19.38;10.32;;;;;;;1.36;95.40;98129.44;5088664;28;20402;-78
2022/12/10 13:00:06;;;;;;;25.38;10.50;;;;;;;1.41;96.10;98137.03;5086429;28;20036;-78
2022/12/10 13:02:50;;;;;;;18.48;9.60;;;;;;;1.44;94.74;98139.38;5081359;28;20056;-78
2022/12/10 13:05:24;;;;;;;20.20;9.55;;;;;;;1.38;94.02;98123.94;5079333;28;20874;-78
2022/12/10 13:08:16;;;;;;;19.65;9.77;;;;;;;1.57;92.29;98149.75;5076434;28;20079;-78
2022/12/10 13:10:50;;;;;;;15.57;8.30;;;;;;;1.58;91.02;98149.59;5082089;28;20040;-77
2022/12/10 13:13:25;;;;;;;16.35;7.25;;;;;;;1.50;89.05;98160.22;5087729;28;20044;-78
2022/12/10 13:15:51;;;;;;;16.52;8.15;;;;;;;1.52;90.16;98170.78;5073882;28;20044;-78
2022/12/10 13:18:33;;;;;;;16.85;8.85;;;;;;;1.38;91.22;98170.28;5086751;28;20134;-78
2022/12/10 13:21:36;;;;;;;46.95;23.17;;;;;;;1.29;91.66;98151.63;5085543;28;20048;-78
2022/12/10 13:24:20;;;;;;;23.63;9.77;;;;;;;1.24;93.46;98171.66;5072031;28;20105;-78
2022/12/10 13:27:03;;;;;;;18.23;9.32;;;;;;;1.22;94.27;98176.31;5084605;28;20457;-78
2022/12/10 13:29:43;;;;;;;15.07;9.48;;;;;;;1.12;94.45;98177.38;5085867;28;20454;-78
2022/12/10 13:32:16;;;;;;;16.77;10.10;;;;;;;1.06;96.22;98176.97;5072544;28;20044;-78
2022/12/10 13:34:42;;;;;;;20.33;10.25;;;;;;;0.98;95.07;98178.69;5089117;28;20478;-77
2022/12/10 13:37:28;;;;;;;21.20;10.57;;;;;;;0.88;95.37;98168.88;5084686;28;20135;-78
2022/12/10 13:40:04;;;;;;;24.80;11.80;;;;;;;0.91;97.74;98191.84;5080751;28;20048;-77
2022/12/10 13:45:33;;;;;;;22.80;10.68;;;;;;;0.86;97.56;98199.47;5089544;28;20058;-78
2022/12/10 13:48:34;;;;;;;21.92;10.85;;;;;;;0.90;99.60;98208.88;5089946;28;20050;-78
2022/12/10 13:51:14;;;;;;;23.63;11.98;;;;;;;0.83;99.74;98208.63;5081771;28;20051;-78
2022/12/10 13:53:48;;;;;;;;;;;;;;;0.96;100.00;98210.13;5081810;28;20083;-78
2022/12/10 13:56:25;;;;;;;21.73;11.05;;;;;;;0.93;100.00;98223.81;5090617;28;20351;-78
2022/12/10 13:59:02;;;;;;;25.15;11.23;;;;;;;0.79;100.00;98211.75;5086797;28;20048;-78
2022/12/10 14:01:37;;;;;;;24.05;12.73;;;;;;;0.76;100.00;98201.34;5084423;28;20083;-78
2022/12/10 14:04:35;;;;;;;20.67;10.82;;;;;;;0.61;100.00;98207.16;5075592;28;20048;-78
2022/12/10 14:07:02;;;;;;;23.17;11.57;;;;;;;0.69;100.00;98203.75;5077856;28;20245;-78
2022/12/10 14:09:34;;;;;;;17.58;10.32;;;;;;;0.75;100.00;98243.28;5080803;28;20048;-78
2022/12/10 14:12:07;;;;;;;39.00;17.42;;;;;;;0.71;100.00;98209.81;5074149;28;20406;-77
2022/12/10 14:14:39;;;;;;;41.88;19.42;;;;;;;0.86;100.00;98243.13;5077257;28;20127;-78
2022/12/10 14:17:10;;;;;;;29.85;13.63;;;;;;;0.86;100.00;98258.34;5079741;28;20056;-78
2022/12/10 14:19:37;;;;;;;24.10;10.93;;;;;;;0.75;100.00;98262.00;5087389;28;20129;-78
2022/12/10 14:22:06;;;;;;;30.05;12.32;;;;;;;0.68;100.00;98267.09;5081345;28;20546;-78
2022/12/10 14:24:36;;;;;;;19.23;9.27;;;;;;;0.49;100.00;98227.03;5086406;28;20066;-78
2022/12/10 14:27:12;;;;;;;20.55;9.32;;;;;;;0.62;100.00;98256.16;5081923;28;20135;-78
2022/12/10 14:29:45;;;;;;;20.13;8.75;;;;;;;0.56;100.00;98252.22;5085866;28;20146;-78
2022/12/10 14:32:15;;;;;;;18.35;9.30;;;;;;;0.45;100.00;98239.84;5081916;28;20106;-78
2022/12/10 14:34:41;;;;;;;;;;;;;;;0.63;100.00;98276.53;5088983;28;20056;-78
2022/12/10 14:37:14;;;;;;;18.10;8.38;;;;;;;0.52;100.00;98240.09;5075326;28;20015;-78
2022/12/10 14:39:41;;;;;;;20.25;8.82;;;;;;;0.50;100.00;98242.09;5091546;28;20055;-77
2022/12/10 14:42:15;;;;;;;30.45;12.57;;;;;;;0.63;100.00;98268.53;5066676;28;20048;-78
2022/12/10 14:44:42;;;;;;;23.08;9.93;;;;;;;0.49;100.00;98259.13;5087608;28;20316;-77
2022/12/10 14:47:15;;;;;;;32.65;12.88;;;;;;;0.67;100.00;98268.09;5088966;28;20083;-78
2022/12/10 14:49:43;;;;;;;21.30;10.90;;;;;;;0.69;100.00;98275.97;5084474;28;20058;-78
2022/12/10 14:52:13;;;;;;;33.05;13.20;;;;;;;0.42;100.00;98258.84;5090771;28;20044;-78
2022/12/10 14:54:40;;;;;;;22.98;10.32;;;;;;;0.34;100.00;98264.06;5079595;28;20044;-77
2022/12/10 14:57:14;;;;;;;19.15;9.93;;;;;;;0.29;100.00;98264.50;5079551;28;20257;-77
2022/12/10 14:59:44;;;;;;;29.20;13.05;;;;;;;0.33;100.00;98279.28;5082145;28;20483;-79
2022/12/10 15:02:19;;;;;;;20.73;10.75;;;;;;;0.38;100.00;98281.50;5087939;28;20044;-78
2022/12/10 15:04:48;;;;;;;22.27;11.60;;;;;;;0.30;100.00;98274.22;5083051;28;20048;-77
2022/12/10 15:07:18;;;;;;;20.17;9.80;;;;;;;0.17;100.00;98274.47;5088356;28;20174;-78
2022/12/10 15:09:48;;;;;;;26.98;12.85;;;;;;;0.33;100.00;98295.31;5088110;28;20048;-78
2022/12/10 15:12:36;;;;;;;25.42;11.82;;;;;;;0.36;100.00;98291.50;5086780;28;20380;-78
2022/12/10 15:15:11;;;;;;;20.33;9.35;;;;;;;-0.01;100.00;98276.16;5085477;28;20404;-77
2022/12/10 15:17:40;;;;;;;22.25;9.50;;;;;;;0.04;100.00;98289.09;5079500;28;20406;-78
2022/12/10 15:20:22;;;;;;;23.05;10.73;;;;;;;-0.03;100.00;98283.47;5084359;28;20044;-78
2022/12/10 15:22:49;;;;;;;31.30;12.18;;;;;;;0.03;100.00;98298.09;5091910;28;20139;-78
2022/12/10 15:25:23;;;;;;;34.00;13.95;;;;;;;-0.08;100.00;98280.38;5090890;28;20124;-78
2022/12/10 15:27:56;;;;;;;33.92;12.73;;;;;;;-0.03;100.00;98300.34;5072439;28;20048;-77
2022/12/10 15:30:25;;;;;;;36.22;13.70;;;;;;;-0.15;100.00;98281.91;5076989;28;20056;-78
2022/12/10 15:32:53;;;;;;;33.47;12.98;;;;;;;0.01;100.00;98308.09;5076963;28;20071;-78
2022/12/10 15:35:19;;;;;;;27.83;14.00;;;;;;;-0.23;100.00;98285.28;5091621;28;20495;-77
2022/12/10 15:37:51;;;;;;;34.03;13.57;;;;;;;-0.20;100.00;98285.84;5072490;28;20052;-78
2022/12/10 15:40:28;;;;;;;35.15;12.30;;;;;;;-0.17;100.00;98323.94;5070860;28;20142;-78
2022/12/10 15:43:12;;;;;;;21.50;10.88;;;;;;;-0.19;100.00;98324.09;5071537;28;20052;-78
2022/12/10 15:45:41;;;;;;;21.50;10.13;;;;;;;-0.28;100.00;98301.72;5074860;28;20059;-77
2022/12/10 15:48:10;;;;;;;16.75;8.73;;;;;;;-0.31;100.00;98319.84;5081174;28;20052;-78
2022/12/10 15:50:37;;;;;;;22.52;8.68;;;;;;;-0.17;100.00;98319.44;5071809;28;20407;-77
2022/12/10 15:53:04;;;;;;;21.15;8.18;;;;;;;-0.27;100.00;98338.13;5071156;28;20063;-77
2022/12/10 15:55:30;;;;;;;17.55;8.60;;;;;;;-0.39;100.00;98328.56;5071559;28;20055;-77
2022/12/10 15:57:58;;;;;;;18.25;9.35;;;;;;;-0.37;100.00;98335.44;5087402;28;20047;-78
2022/12/10 16:00:26;;;;;;;36.20;14.48;;;;;;;-0.62;100.00;98312.69;5088027;28;20488;-78
2022/12/10 16:02:55;;;;;;;59.88;22.27;;;;;;;-0.43;100.00;98333.31;5082659;28;20297;-77
2022/12/10 16:05:24;;;;;;;51.58;19.83;;;;;;;-0.47;100.00;98318.53;5089956;28;20048;-77
2022/12/10 16:07:53;;;;;;;57.05;21.23;;;;;;;-0.42;100.00;98323.44;5082988;28;20080;-77
2022/12/10 16:10:22;;;;;;;53.28;20.73;;;;;;;-0.58;100.00;98332.81;5080942;28;20063;-78
2022/12/10 16:12:51;;;;;;;54.08;20.08;;;;;;;-0.66;100.00;98327.31;5081774;28;20048;-78
2022/12/10 16:15:21;;;;;;;37.43;15.23;;;;;;;-0.66;100.00;98329.13;5091448;28;20044;-78
2022/12/10 16:17:48;;;;;;;29.67;12.90;;;;;;;-0.58;100.00;98351.50;5082516;28;20131;-77
2022/12/10 16:20:21;;;;;;;31.75;13.68;;;;;;;-0.72;100.00;98341.22;5070406;28;20044;-78
2022/12/10 16:22:48;;;;;;;25.83;11.43;;;;;;;-0.88;100.00;98325.66;5071092;28;20132;-77
2022/12/10 16:25:15;;;;;;;23.05;9.90;;;;;;;-0.80;100.00;98362.38;5070484;28;20051;-77
2022/12/10 16:27:42;;;;;;;17.52;8.52;;;;;;;-0.95;100.00;98362.72;5076912;28;20495;-77
2022/12/10 16:30:14;;;;;;;20.15;9.25;;;;;;;-1.13;100.00;98335.81;5082975;28;20040;-77
2022/12/10 16:32:42;;;;;;;31.88;12.05;;;;;;;-1.03;100.00;98356.34;5086723;28;20143;-77
2022/12/10 16:35:10;;;;;;;25.75;12.75;;;;;;;-1.09;100.00;98341.69;5082790;28;20628;-77
2022/12/10 16:37:37;;;;;;;30.73;12.32;;;;;;;-1.11;100.00;98333.84;5086091;28;20044;-77
2022/12/10 16:40:04;;;;;;;31.58;13.18;;;;;;;-0.87;100.00;98367.41;5086705;28;20048;-77
2022/12/10 16:42:30;;;;;;;26.70;12.38;;;;;;;-1.09;100.00;98342.53;5083459;28;20116;-77
2022/12/10 16:44:57;;;;;;;18.77;10.20;;;;;;;-0.88;100.00;98367.53;5082169;28;20045;-77
2022/12/10 16:47:23;;;;;;;21.95;11.60;;;;;;;-0.86;100.00;98370.91;5084970;28;20056;-77
2022/12/10 16:49:52;;;;;;;22.75;10.13;;;;;;;-0.84;100.00;98364.47;5081847;28;20525;-78
2022/12/10 16:52:19;;;;;;;20.88;9.85;;;;;;;-1.02;100.00;98353.53;5079805;28;20076;-77
2022/12/10 16:54:46;;;;;;;21.90;10.90;;;;;;;-0.92;100.00;98378.47;5081746;28;20044;-77
2022/12/10 16:57:16;;;;;;;25.45;12.10;;;;;;;-0.84;100.00;98388.47;5072171;28;20048;-78
2022/12/10 16:59:43;;;;;;;25.33;11.60;;;;;;;-1.08;100.00;98362.06;5081462;28;20066;-77
2022/12/10 17:02:15;;;;;;;30.52;13.07;;;;;;;-1.02;100.00;98382.91;5087994;28;20272;-77
2022/12/10 17:04:41;;;;;;;32.38;14.80;;;;;;;-1.07;100.00;98372.63;5091779;28;20040;-77
2022/12/10 17:07:11;;;;;;;28.38;13.82;;;;;;;-1.14;100.00;98366.09;5090760;28;20056;-77
2022/12/10 17:09:38;;;;;;;26.08;13.32;;;;;;;-0.95;100.00;98385.88;5081155;28;20048;-77
2022/12/10 17:12:06;;;;;;;22.83;12.50;;;;;;;-1.02;100.00;98390.91;5084724;28;20484;-77
2022/12/10 17:14:34;;;;;;;20.40;9.07;;;;;;;-0.98;100.00;98391.47;5081884;28;20055;-77
2022/12/10 17:17:03;;;;;;;18.63;9.32;;;;;;;-1.15;100.00;98383.06;5090929;28;20131;-77
2022/12/10 17:19:31;;;;;;;19.63;9.00;;;;;;;-1.29;100.00;98364.75;5087855;28;20051;-77
2022/12/10 17:21:58;;;;;;;17.85;9.20;;;;;;;-1.32;100.00;98373.00;5087187;28;20061;-77
2022/12/10 17:24:27;;;;;;;21.60;9.95;;;;;;;-1.33;100.00;98389.97;5084494;28;20139;-77
2022/12/10 17:26:56;;;;;;;20.95;10.23;;;;;;;-1.35;100.00;98382.09;5082757;28;20120;-77
2022/12/10 17:29:32;;;;;;;32.27;13.73;;;;;;;-1.39;100.00;98377.16;5090085;28;20052;-77
2022/12/10 17:31:59;;;;;;;20.02;10.10;;;;;;;-1.40;100.00;98376.31;5089219;28;20328;-77
2022/12/10 17:34:25;;;;;;;24.90;11.05;;;;;;;-1.34;100.00;98390.94;5084556;28;20051;-77
2022/12/10 17:36:52;;;;;;;23.42;11.77;;;;;;;-1.58;100.00;98368.03;5070545;28;20086;-77
2022/12/10 17:39:21;;;;;;;22.83;11.13;;;;;;;-1.58;100.00;98375.16;5068564;28;20064;-77
2022/12/10 17:41:50;;;;;;;26.42;11.77;;;;;;;-1.55;100.00;98388.25;5069893;28;20053;-77
2022/12/10 17:44:16;;;;;;;27.30;12.55;;;;;;;-1.72;100.00;98377.16;5083226;28;20043;-77
2022/12/10 17:46:43;;;;;;;28.38;12.85;;;;;;;-1.65;100.00;98393.50;5079477;28;20040;-77
2022/12/10 17:49:12;;;;;;;31.50;12.80;;;;;;;-1.62;100.00;98393.25;5073794;28;20078;-77
2022/12/10 17:51:39;;;;;;;28.52;13.98;;;;;;;-1.60;100.00;98391.28;5084818;28;20052;-77
2022/12/10 17:54:05;;;;;;;26.30;12.95;;;;;;;-1.54;100.00;98401.44;5068336;28;20051;-77
2022/12/10 17:56:32;;;;;;;24.35;12.80;;;;;;;-1.67;100.00;98374.97;5071925;28;20049;-77
2022/12/10 17:59:00;;;;;;;25.08;13.07;;;;;;;-1.65;100.00;98377.50;5088198;28;20040;-77
2022/12/10 18:01:27;;;;;;;30.60;13.52;;;;;;;-1.74;100.00;98380.94;5088237;28;20056;-77
2022/12/10 18:03:54;;;;;;;23.02;12.75;;;;;;;-1.81;100.00;98375.25;5081315;28;20055;-78
2022/12/10 18:06:24;;;;;;;26.70;11.98;;;;;;;-1.60;100.00;98415.28;5093637;28;20048;-77
2022/12/10 18:08:52;;;;;;;21.20;10.55;;;;;;;-1.81;100.00;98396.56;5083170;28;20462;-78
2022/12/10 18:11:20;;;;;;;22.35;10.38;;;;;;;-1.72;100.00;98422.44;5082637;28;20405;-78
2022/12/10 18:13:47;;;;;;;24.70;11.60;;;;;;;-1.84;100.00;98416.31;5092531;28;20616;-78
2022/12/10 18:16:18;;;;;;;23.73;11.10;;;;;;;-1.79;100.00;98418.63;5092688;28;20054;-77
2022/12/10 18:18:45;;;;;;;24.80;11.13;;;;;;;-1.75;100.00;98421.88;5081631;28;20123;-78
2022/12/10 18:21:14;;;;;;;27.88;13.30;;;;;;;-1.65;100.00;98436.13;5087999;28;20062;-77
2022/12/10 18:23:41;;;;;;;29.13;12.23;;;;;;;-1.74;100.00;98424.41;5083749;28;20418;-77
2022/12/10 18:26:12;;;;;;;26.80;11.93;;;;;;;-1.65;100.00;98442.31;5085343;28;20245;-77
2022/12/10 18:28:45;;;;;;;28.48;12.48;;;;;;;-1.62;100.00;98441.22;5073256;28;20055;-77
2022/12/10 18:31:17;;;;;;;29.65;13.13;;;;;;;-1.69;100.00;98432.88;5078804;28;20071;-77
2022/12/10 18:33:47;;;;;;;27.08;13.07;;;;;;;-1.56;100.00;98431.88;5081082;28;20127;-77
2022/12/10 18:36:17;;;;;;;25.80;12.48;;;;;;;-1.70;100.00;98401.00;5090974;28;20039;-77
2022/12/10 18:38:44;;;;;;;29.98;12.85;;;;;;;-1.71;100.00;98407.34;5093519;28;20055;-77
2022/12/10 18:41:11;;;;;;;31.90;14.23;;;;;;;-1.62;100.00;98426.06;5089170;28;20908;-77
2022/12/10 18:43:38;;;;;;;27.15;12.55;;;;;;;-1.44;100.00;98445.03;5085755;28;20130;-77
2022/12/10 18:46:05;;;;;;;34.90;14.55;;;;;;;-1.49;100.00;98435.72;5080026;28;20037;-77
2022/12/10 18:48:33;;;;;;;29.50;13.68;;;;;;;-1.51;100.00;98441.16;5073057;28;20056;-77
2022/12/10 18:51:00;;;;;;;27.65;13.63;;;;;;;-1.54;100.00;98443.25;5072995;28;20076;-77
2022/12/10 18:53:27;;;;;;;31.00;13.13;;;;;;;-1.53;100.00;98413.81;5090886;28;20547;-78
2022/12/10 18:55:53;;;;;;;31.40;14.52;;;;;;;-1.39;100.00;98441.16;5079680;28;20051;-77
2022/12/10 18:58:20;;;;;;;27.35;12.63;;;;;;;-1.52;100.00;98434.16;5073036;28;20064;-78
2022/12/10 19:00:47;;;;;;;31.08;12.52;;;;;;;-1.54;100.00;98421.94;5082975;28;20050;-77
2022/12/10 19:03:14;;;;;;;24.23;12.27;;;;;;;-1.51;100.00;98435.00;5076503;28;20057;-77
2022/12/10 19:05:42;;;;;;;33.75;13.60;;;;;;;-1.56;100.00;98422.06;5081095;28;20048;-77
2022/12/10 19:08:10;;;;;;;32.65;14.55;;;;;;;-1.68;100.00;98420.41;5077894;28;20052;-77
2022/12/10 19:10:37;;;;;;;28.48;14.50;;;;;;;-1.63;100.00;98428.84;5089577;28;20044;-79
2022/12/10 19:13:04;;;;;;;33.03;14.65;;;;;;;-1.63;100.00;98432.34;5093275;28;20048;-79
2022/12/10 19:15:30;;;;;;;35.15;14.98;;;;;;;-1.56;100.00;98432.72;5084604;28;20130;-79
2022/12/10 19:17:59;;;;;;;29.50;14.88;;;;;;;-1.65;100.00;98433.47;5083182;28;20049;-76
2022/12/10 19:20:26;;;;;;;33.95;15.85;;;;;;;-1.67;100.00;98427.41;5095566;28;20177;-77
2022/12/10 19:22:54;;;;;;;34.78;17.20;;;;;;;-1.50;100.00;98444.72;5074526;28;20052;-76
2022/12/10 19:25:22;;;;;;;37.20;16.70;;;;;;;-1.47;100.00;98457.78;5090706;28;20146;-78
2022/12/10 19:27:49;;;;;;;43.25;18.08;;;;;;;-1.53;100.00;98456.47;5077789;28;20048;-77
2022/12/10 19:30:20;;;;;;;50.55;19.75;;;;;;;-1.63;100.00;98443.03;5087755;28;20115;-78
2022/12/10 19:32:47;;;;;;;41.33;20.25;;;;;;;-1.49;100.00;98455.25;5078407;28;20136;-78
2022/12/10 19:35:16;;;;;;;42.95;20.65;;;;;;;-1.51;100.00;98451.00;5072200;28;20492;-78
2022/12/10 19:37:45;;;;;;;46.00;20.50;;;;;;;-1.43;100.00;98454.72;5076313;28;20146;-78
2022/12/10 19:40:19;;;;;;;39.60;19.13;;;;;;;-1.63;100.00;98424.38;5071618;28;20098;-77
2022/12/10 19:42:45;;;;;;;36.95;17.55;;;;;;;-1.47;100.00;98458.63;5071869;28;20121;-77
2022/12/10 19:45:12;;;;;;;32.20;16.63;;;;;;;-1.59;100.00;98437.47;5077595;28;20389;-78
2022/12/10 19:47:39;;;;;;;39.53;17.58;;;;;;;-1.50;100.00;98455.38;5088519;28;20133;-78
2022/12/10 19:50:06;;;;;;;29.13;15.85;;;;;;;-1.49;100.00;98462.38;5090424;28;20050;-78
2022/12/10 19:52:33;;;;;;;31.50;14.98;;;;;;;-1.46;100.00;98456.78;5081968;28;20056;-78
2022/12/10 19:55:00;;;;;;;30.45;14.48;;;;;;;-1.58;100.00;98445.34;5083359;28;20048;-78
2022/12/10 19:57:27;;;;;;;37.65;17.92;;;;;;;-1.50;100.00;98458.03;5088512;28;20048;-78
2022/12/10 19:59:54;;;;;;;33.42;16.38;;;;;;;-1.66;100.00;98440.59;5083693;28;20380;-78
2022/12/10 20:02:21;;;;;;;35.83;15.63;;;;;;;-1.68;100.00;98423.06;5085468;28;20526;-78
2022/12/10 20:04:47;;;;;;;38.20;16.95;;;;;;;-1.61;100.00;98442.94;5084196;28;20084;-78
2022/12/10 20:07:14;;;;;;;32.70;15.77;;;;;;;-1.66;100.00;98443.28;5090175;28;20044;-78
2022/12/10 20:09:41;;;;;;;28.63;14.23;;;;;;;-1.86;100.00;98428.06;5083178;28;20135;-79
2022/12/10 20:12:07;;;;;;;28.02;13.40;;;;;;;-1.88;100.00;98420.22;5091331;28;20129;-77
2022/12/10 20:14:35;;;;;;;26.80;12.45;;;;;;;-1.92;100.00;98439.22;5089344;28;20139;-77
2022/12/10 20:17:02;;;;;;;24.65;12.48;;;;;;;-2.04;100.00;98409.94;5090962;28;20040;-77
2022/12/10 20:19:28;;;;;;;26.60;11.75;;;;;;;-2.03;100.00;98430.28;5091656;28;20094;-77
2022/12/10 20:21:55;;;;;;;30.88;14.07;;;;;;;-2.18;100.00;98419.03;5088572;28;20048;-78
2022/12/10 20:24:21;;;;;;;27.20;12.93;;;;;;;-2.11;100.00;98431.84;5078382;28;20050;-78
2022/12/10 20:26:49;;;;;;;25.48;12.32;;;;;;;-2.16;100.00;98442.88;5082544;28;20044;-78
2022/12/10 20:29:18;;;;;;;27.67;13.15;;;;;;;-2.16;100.00;98462.38;5091434;28;20059;-78
2022/12/10 20:31:46;;;;;;;25.55;12.68;;;;;;;-2.37;100.00;98435.63;5085763;28;20055;-78
2022/12/10 20:34:12;;;;;;;27.42;12.07;;;;;;;-2.33;100.00;98452.22;5077732;28;20181;-78
2022/12/10 20:36:40;;;;;;;25.02;12.43;;;;;;;-2.30;100.00;98462.63;5087359;28;20048;-79
2022/12/10 20:39:15;;;;;;;28.02;12.65;;;;;;;-2.36;100.00;98461.28;5086081;28;20040;-77
2022/12/10 20:41:41;;;;;;;24.38;11.77;;;;;;;-2.32;100.00;98460.09;5091171;28;20044;-78
2022/12/10 20:44:08;;;;;;;27.30;12.77;;;;;;;-2.18;100.00;98477.63;5090742;28;20097;-78
2022/12/10 20:46:36;;;;;;;33.50;13.70;;;;;;;-2.38;100.00;98441.06;5090592;28;20059;-78
2022/12/10 20:49:04;;;;;;;25.27;12.18;;;;;;;-2.49;100.00;98436.59;5089470;28;20122;-79
2022/12/10 20:51:31;;;;;;;29.27;12.00;;;;;;;-2.37;100.00;98475.56;5087492;28;20059;-78
2022/12/10 20:53:57;;;;;;;25.95;12.30;;;;;;;-2.43;100.00;98460.06;5083911;28;20513;-78
2022/12/10 20:56:25;;;;;;;27.00;12.57;;;;;;;-2.37;100.00;98480.88;5089704;28;20036;-78
2022/12/10 20:58:52;;;;;;;27.35;12.18;;;;;;;-2.54;100.00;98460.06;5083660;28;20052;-78
2022/12/10 21:01:19;;;;;;;26.95;12.27;;;;;;;-2.32;100.00;98480.50;5089400;28;20555;-78
2022/12/10 21:03:47;;;;;;;25.08;11.63;;;;;;;-2.43;100.00;98468.03;5072999;28;20066;-78
2022/12/10 21:06:18;;;;;;;27.73;13.50;;;;;;;-2.42;100.00;98477.75;5074839;28;20375;-78
2022/12/10 21:08:45;;;;;;;24.33;12.00;;;;;;;-2.58;100.00;98448.78;5087862;28;20491;-78
2022/12/10 21:11:12;;;;;;;28.45;13.73;;;;;;;-2.44;100.00;98460.19;5082484;28;20075;-78
2022/12/10 21:13:38;;;;;;;24.30;11.68;;;;;;;-2.60;100.00;98452.56;5082657;28;20059;-78
2022/12/10 21:16:05;;;;;;;33.30;13.90;;;;;;;-2.58;100.00;98454.13;5090960;28;20047;-78
2022/12/10 21:18:33;;;;;;;28.50;12.25;;;;;;;-2.64;100.00;98467.06;5088768;28;20079;-78
2022/12/10 21:21:01;;;;;;;28.40;12.70;;;;;;;-2.63;100.00;98474.94;5081903;28;20041;-78